createdAt,value
2017-05-16T00:00:15.995Z,25.2
2017-05-16T00:01:16.000Z,25.2
2017-05-16T00:02:16.015Z,25.2
2017-05-16T00:03:16.027Z,25.2
2017-05-16T00:04:17.340Z,25.2
2017-05-16T00:05:16.123Z,25.2
2017-05-16T00:06:17.124Z,25.2
2017-05-16T00:07:16.099Z,25.2
2017-05-16T00:08:17.252Z,25.2
2017-05-16T00:09:16.279Z,25.2
2017-05-16T00:10:17.672Z,25.2
2017-05-16T00:11:16.359Z,25.2
2017-05-16T00:12:16.397Z,25.2
2017-05-16T00:13:16.494Z,25.2
2017-05-16T00:14:17.590Z,25.2
2017-05-16T00:15:16.658Z,25.2
2017-05-16T00:16:16.885Z,25.2
2017-05-16T00:17:16.732Z,25.2
2017-05-16T00:18:17.762Z,25.2
2017-05-16T00:19:17.843Z,25.2
2017-05-16T00:20:17.895Z,25.2
2017-05-16T00:21:18.019Z,25.2
2017-05-16T00:22:17.168Z,25.2
2017-05-16T00:23:18.095Z,25.2
2017-05-16T00:24:17.118Z,25.3
2017-05-16T00:25:17.113Z,25.3
2017-05-16T00:26:18.166Z,25.3
2017-05-16T00:27:17.277Z,25.2
2017-05-16T00:28:17.624Z,25.2
2017-05-16T00:29:18.404Z,25.2
2017-05-16T00:30:17.363Z,25.3
2017-05-16T00:31:17.536Z,25.2
2017-05-16T00:32:17.549Z,25.3
2017-05-16T00:33:18.648Z,25.3
2017-05-16T00:34:19.072Z,25.3
2017-05-16T00:35:17.752Z,25.3
2017-05-16T00:36:17.766Z,25.2
2017-05-16T00:37:17.930Z,25.3
2017-05-16T00:38:17.957Z,25.3
2017-05-16T00:39:18.011Z,25.3
2017-05-16T00:40:18.211Z,25.3
2017-05-16T00:41:18.056Z,25.3
2017-05-16T00:42:19.068Z,25.3
2017-05-16T00:43:19.203Z,25.3
2017-05-16T00:44:19.136Z,25.3
2017-05-16T00:45:18.151Z,25.3
2017-05-16T00:46:18.488Z,25.3
2017-05-16T00:47:19.294Z,25.3
2017-05-16T00:48:19.435Z,25.3
2017-05-16T00:49:18.489Z,25.3
2017-05-16T00:50:19.601Z,25.3
2017-05-16T00:51:19.578Z,25.3
2017-05-16T00:52:18.851Z,25.3
2017-05-16T00:53:18.640Z,25.3
2017-05-16T00:54:19.768Z,25.3
2017-05-16T00:55:19.922Z,25.3
2017-05-16T00:56:19.980Z,25.3
2017-05-16T00:57:18.994Z,25.3
2017-05-16T00:58:19.270Z,25.3
2017-05-16T00:59:19.023Z,25.3
2017-05-16T01:00:19.143Z,25.3
2017-05-16T01:01:19.116Z,25.3
2017-05-16T01:02:19.188Z,25.3
2017-05-16T01:03:19.381Z,25.3
2017-05-16T01:04:20.752Z,25.3
2017-05-16T01:05:20.482Z,25.3
2017-05-16T01:06:19.480Z,25.3
2017-05-16T01:07:19.522Z,25.3
2017-05-16T01:08:20.661Z,25.3
2017-05-16T01:09:19.719Z,25.3
2017-05-16T01:10:21.050Z,25.3
2017-05-16T01:11:20.787Z,25.3
2017-05-16T01:12:19.751Z,25.3
2017-05-16T01:13:19.795Z,25.3
2017-05-16T01:14:20.975Z,25.3
2017-05-16T01:15:19.937Z,25.3
2017-05-16T01:16:20.148Z,25.3
2017-05-16T01:17:20.944Z,25.3
2017-05-16T01:18:21.053Z,25.3
2017-05-16T01:19:21.114Z,25.3
2017-05-16T01:20:21.048Z,25.3
2017-05-16T01:21:20.110Z,25.3
2017-05-16T01:22:21.420Z,25.3
2017-05-16T01:23:20.220Z,25.3
2017-05-16T01:24:20.168Z,25.3
2017-05-16T01:25:20.300Z,25.3
2017-05-16T01:26:21.372Z,25.3
2017-05-16T01:27:21.322Z,25.3
2017-05-16T01:28:20.634Z,25.3
2017-05-16T01:29:20.432Z,25.3
2017-05-16T01:30:21.507Z,25.3
2017-05-16T01:31:20.449Z,25.3
2017-05-16T01:32:21.530Z,25.3
2017-05-16T01:33:20.507Z,25.3
2017-05-16T01:34:20.915Z,25.3
2017-05-16T01:35:20.655Z,25.3
2017-05-16T01:36:20.689Z,25.3
2017-05-16T01:37:20.604Z,25.3
2017-05-16T01:38:21.791Z,25.3
2017-05-16T01:39:20.771Z,25.3
2017-05-16T01:40:22.128Z,25.3
2017-05-16T01:41:21.846Z,25.3
2017-05-16T01:42:20.900Z,25.3
2017-05-16T01:43:20.915Z,25.3
2017-05-16T01:44:20.907Z,25.3
2017-05-16T01:45:22.040Z,25.3
2017-05-16T01:46:21.257Z,25.3
2017-05-16T01:47:21.085Z,25.3
2017-05-16T01:48:22.163Z,25.3
2017-05-16T01:49:21.209Z,25.3
2017-05-16T01:50:21.329Z,25.3
2017-05-16T01:51:22.478Z,25.3
2017-05-16T01:52:21.733Z,25.3
2017-05-16T01:53:21.466Z,25.4
2017-05-16T01:54:21.497Z,25.4
2017-05-16T01:55:21.543Z,25.4
2017-05-16T01:56:22.591Z,25.4
2017-05-16T01:57:21.627Z,25.4
2017-05-16T01:58:21.941Z,25.4
2017-05-16T01:59:21.566Z,25.3
2017-05-16T02:00:21.668Z,25.4
2017-05-16T02:01:21.750Z,25.4
2017-05-16T02:02:22.771Z,25.4
2017-05-16T02:03:22.829Z,25.4
2017-05-16T02:04:22.085Z,25.4
2017-05-16T02:05:21.812Z,25.4
2017-05-16T02:06:21.906Z,25.4
2017-05-16T02:07:22.005Z,25.4
2017-05-16T02:08:22.012Z,25.4
2017-05-16T02:09:21.991Z,25.4
2017-05-16T02:10:23.384Z,25.3
2017-05-16T02:11:22.060Z,25.3
2017-05-16T02:12:23.159Z,25.4
2017-05-16T02:13:22.222Z,25.3
2017-05-16T02:14:22.219Z,25.4
2017-05-16T02:15:23.324Z,25.4
2017-05-16T02:16:23.617Z,25.4
2017-05-16T02:17:22.388Z,25.4
2017-05-16T02:18:22.327Z,25.4
2017-05-16T02:19:23.530Z,25.4
2017-05-16T02:20:23.490Z,25.4
2017-05-16T02:21:23.514Z,25.4
2017-05-16T02:22:23.963Z,25.4
2017-05-16T02:23:22.620Z,25.4
2017-05-16T02:24:23.873Z,25.4
2017-05-16T02:25:22.746Z,25.4
2017-05-16T02:26:23.912Z,25.4
2017-05-16T02:27:22.856Z,25.4
2017-05-16T02:28:23.267Z,25.4
2017-05-16T02:29:23.091Z,25.4
2017-05-16T02:30:24.147Z,25.4
2017-05-16T02:31:23.166Z,25.4
2017-05-16T02:32:24.237Z,25.4
2017-05-16T02:33:24.248Z,25.4
2017-05-16T02:34:24.479Z,25.4
2017-05-16T02:35:24.256Z,25.4
2017-05-16T02:36:23.167Z,25.4
2017-05-16T02:37:24.259Z,25.4
2017-05-16T02:38:23.257Z,25.4
2017-05-16T02:39:24.489Z,25.4
2017-05-16T02:40:24.787Z,25.4
2017-05-16T02:41:23.498Z,25.4
2017-05-16T02:42:24.552Z,25.4
2017-05-16T02:43:23.618Z,25.4
2017-05-16T02:44:24.752Z,25.4
2017-05-16T02:45:24.795Z,25.4
2017-05-16T02:46:25.154Z,25.4
2017-05-16T02:47:23.790Z,25.4
2017-05-16T02:48:23.853Z,25.4
2017-05-16T02:49:24.864Z,25.4
2017-05-16T02:50:24.984Z,25.4
2017-05-16T02:51:24.006Z,25.4
2017-05-16T02:52:24.372Z,25.4
2017-05-16T02:53:25.176Z,25.4
2017-05-16T02:54:25.251Z,25.4
2017-05-16T02:55:24.247Z,25.4
2017-05-16T02:56:24.313Z,25.4
2017-05-16T02:57:24.349Z,25.4
2017-05-16T02:58:25.852Z,25.4
2017-05-16T02:59:24.435Z,25.4
2017-05-16T03:00:24.492Z,25.4
2017-05-16T03:01:25.716Z,25.4
2017-05-16T03:02:24.728Z,25.4
2017-05-16T03:03:25.860Z,25.4
2017-05-16T03:04:25.058Z,25.4
2017-05-16T03:05:25.752Z,25.4
2017-05-16T03:06:24.709Z,25.4
2017-05-16T03:07:25.890Z,25.4
2017-05-16T03:08:24.891Z,25.4
2017-05-16T03:09:25.910Z,25.4
2017-05-16T03:10:26.263Z,25.4
2017-05-16T03:11:24.977Z,25.4
2017-05-16T03:12:24.953Z,25.4
2017-05-16T03:13:26.713Z,25.4
2017-05-16T03:14:25.121Z,25.4
2017-05-16T03:15:25.049Z,25.4
2017-05-16T03:16:26.470Z,25.4
2017-05-16T03:17:25.121Z,25.4
2017-05-16T03:18:26.227Z,25.4
2017-05-16T03:19:26.325Z,25.4
2017-05-16T03:20:25.310Z,25.4
2017-05-16T03:21:25.430Z,25.4
2017-05-16T03:22:26.748Z,25.4
2017-05-16T03:23:25.363Z,25.4
2017-05-16T03:24:26.459Z,25.4
2017-05-16T03:25:25.583Z,25.4
2017-05-16T03:26:26.643Z,25.4
2017-05-16T03:27:26.780Z,25.4
2017-05-16T03:28:26.073Z,25.4
2017-05-16T03:29:25.769Z,25.4
2017-05-16T03:30:26.861Z,25.4
2017-05-16T03:31:26.993Z,25.4
2017-05-16T03:32:27.013Z,25.4
2017-05-16T03:33:26.023Z,25.4
2017-05-16T03:34:26.417Z,25.4
2017-05-16T03:35:26.193Z,25.4
2017-05-16T03:36:26.300Z,25.4
2017-05-16T03:37:26.334Z,25.4
2017-05-16T03:38:26.296Z,25.4
2017-05-16T03:39:26.388Z,25.4
2017-05-16T03:40:26.703Z,25.4
2017-05-16T03:41:27.583Z,25.4
2017-05-16T03:42:27.735Z,25.4
2017-05-16T03:43:27.675Z,25.4
2017-05-16T03:44:27.738Z,25.4
2017-05-16T03:45:27.857Z,25.5
2017-05-16T03:46:27.125Z,25.6
2017-05-16T03:47:26.754Z,25.6
2017-05-16T03:48:27.862Z,25.7
2017-05-16T03:49:27.941Z,25.7
2017-05-16T03:50:28.064Z,25.7
2017-05-16T03:51:27.027Z,25.8
2017-05-16T03:52:27.309Z,25.8
2017-05-16T03:53:28.221Z,25.8
2017-05-16T03:54:28.248Z,25.8
2017-05-16T03:55:28.214Z,25.8
2017-05-16T03:56:28.297Z,25.8
2017-05-16T03:57:27.276Z,25.8
2017-05-16T03:58:28.787Z,25.8
2017-05-16T03:59:28.496Z,25.8
2017-05-16T04:00:28.595Z,25.8
2017-05-16T04:01:27.596Z,25.8
2017-05-16T04:02:28.545Z,25.8
2017-05-16T04:03:28.714Z,25.8
2017-05-16T04:04:28.992Z,25.8
2017-05-16T04:05:28.775Z,25.8
2017-05-16T04:06:28.807Z,25.8
2017-05-16T04:07:28.866Z,25.8
2017-05-16T04:08:28.985Z,25.8
2017-05-16T04:09:27.926Z,25.8
2017-05-16T04:10:28.229Z,25.8
2017-05-16T04:11:28.057Z,25.8
2017-05-16T04:12:29.061Z,25.8
2017-05-16T04:13:28.058Z,25.8
2017-05-16T04:14:29.162Z,25.8
2017-05-16T04:15:28.271Z,25.8
2017-05-16T04:16:28.574Z,25.8
2017-05-16T04:17:28.311Z,25.8
2017-05-16T04:18:29.486Z,25.8
2017-05-16T04:19:28.554Z,25.8
2017-05-16T04:20:29.585Z,25.8
2017-05-16T04:21:29.629Z,25.8
2017-05-16T04:22:30.107Z,25.8
2017-05-16T04:23:29.828Z,25.8
2017-05-16T04:24:29.896Z,25.8
2017-05-16T04:25:29.857Z,25.8
2017-05-16T04:26:29.906Z,25.7
2017-05-16T04:27:29.967Z,25.7
2017-05-16T04:28:31.167Z,25.7
2017-05-16T04:29:29.026Z,25.7
2017-05-16T04:30:30.063Z,25.7
2017-05-16T04:31:29.130Z,25.7
2017-05-16T04:32:30.199Z,25.7
2017-05-16T04:33:29.125Z,25.7
2017-05-16T04:34:29.495Z,25.7
2017-05-16T04:35:30.375Z,25.6
2017-05-16T04:36:29.368Z,25.5
2017-05-16T04:37:30.459Z,25.5
2017-05-16T04:38:29.465Z,25.5
2017-05-16T04:39:29.323Z,25.6
2017-05-16T04:40:29.695Z,25.6
2017-05-16T04:41:29.529Z,25.6
2017-05-16T04:42:30.554Z,25.7
2017-05-16T04:43:30.655Z,25.7
2017-05-16T04:44:29.686Z,25.7
2017-05-16T04:45:30.697Z,25.7
2017-05-16T04:46:30.132Z,25.8
2017-05-16T04:47:30.783Z,25.8
2017-05-16T04:48:30.876Z,25.8
2017-05-16T04:49:29.983Z,25.8
2017-05-16T04:50:31.006Z,25.8
2017-05-16T04:51:31.028Z,25.8
2017-05-16T04:52:31.410Z,25.9
2017-05-16T04:53:31.159Z,25.9
2017-05-16T04:54:30.119Z,25.9
2017-05-16T04:55:31.312Z,25.9
2017-05-16T04:56:31.327Z,25.9
2017-05-16T04:57:31.485Z,25.9
2017-05-16T04:58:30.822Z,25.9
2017-05-16T04:59:31.558Z,25.9
2017-05-16T05:00:31.646Z,25.9
2017-05-16T05:01:30.561Z,26
2017-05-16T05:02:31.739Z,26
2017-05-16T05:03:31.783Z,26
2017-05-16T05:04:32.159Z,26
2017-05-16T05:05:30.981Z,26
2017-05-16T05:06:30.978Z,26
2017-05-16T05:07:31.067Z,26
2017-05-16T05:08:31.116Z,26.1
2017-05-16T05:09:32.260Z,26.1
2017-05-16T05:10:31.495Z,26.1
2017-05-16T05:11:32.386Z,26.1
2017-05-16T05:12:32.337Z,26.1
2017-05-16T05:13:32.450Z,26.1
2017-05-16T05:14:32.486Z,26.2
2017-05-16T05:15:32.590Z,26.2
2017-05-16T05:16:33.039Z,26.2
2017-05-16T05:17:33.364Z,26.2
2017-05-16T05:18:31.754Z,26.2
2017-05-16T05:19:31.708Z,26.3
2017-05-16T05:20:31.867Z,26.3
2017-05-16T05:21:32.977Z,26.3
2017-05-16T05:22:32.154Z,26.3
2017-05-16T05:23:33.184Z,26.3
2017-05-16T05:24:33.428Z,26.3
2017-05-16T05:25:34.692Z,26.4
2017-05-16T05:26:32.693Z,26.4
2017-05-16T05:27:32.337Z,26.4
2017-05-16T05:28:32.601Z,26.4
2017-05-16T05:29:34.011Z,26.5
2017-05-16T05:30:32.411Z,26.5
2017-05-16T05:31:33.112Z,26.5
2017-05-16T05:32:32.460Z,26.5
2017-05-16T05:33:35.048Z,26.5
2017-05-16T05:34:36.093Z,26.6
2017-05-16T05:35:34.697Z,26.6
2017-05-16T05:36:34.408Z,26.7
2017-05-16T05:37:33.379Z,26.7
2017-05-16T05:38:35.421Z,26.8
2017-05-16T05:39:34.935Z,26.8
2017-05-16T05:40:33.207Z,26.9
2017-05-16T05:41:34.706Z,26.9
2017-05-16T05:42:33.886Z,26.9
2017-05-16T05:43:34.223Z,27
2017-05-16T05:44:34.429Z,27
2017-05-16T05:45:34.873Z,27
2017-05-16T05:46:34.335Z,27
2017-05-16T05:47:34.200Z,27.1
2017-05-16T05:48:34.225Z,27.1
2017-05-16T05:49:33.178Z,27.2
2017-05-16T05:50:35.954Z,27.2
2017-05-16T05:51:33.220Z,27.3
2017-05-16T05:52:33.553Z,27.4
2017-05-16T05:53:33.926Z,27.4
2017-05-16T05:54:33.452Z,27.4
2017-05-16T05:55:33.351Z,27.5
2017-05-16T05:56:34.508Z,27.5
2017-05-16T05:57:33.456Z,27.5
2017-05-16T05:58:34.900Z,27.5
2017-05-16T05:59:33.499Z,27.6
2017-05-16T06:00:33.704Z,27.6
2017-05-16T06:01:34.680Z,27.7
2017-05-16T06:02:33.693Z,27.7
2017-05-16T06:03:34.946Z,27.7
2017-05-16T06:04:35.165Z,27.7
2017-05-16T06:05:34.937Z,27.7
2017-05-16T06:06:34.916Z,27.7
2017-05-16T06:07:33.957Z,27.7
2017-05-16T06:08:35.055Z,27.8
2017-05-16T06:09:35.036Z,27.8
2017-05-16T06:10:35.372Z,27.8
2017-05-16T06:11:33.993Z,27.8
2017-05-16T06:12:34.097Z,27.8
2017-05-16T06:13:35.348Z,27.8
2017-05-16T06:14:34.179Z,27.8
2017-05-16T06:15:34.701Z,27.8
2017-05-16T06:16:34.588Z,27.9
2017-05-16T06:17:37.372Z,27.9
2017-05-16T06:18:34.521Z,27.9
2017-05-16T06:19:35.549Z,27.9
2017-05-16T06:20:34.670Z,27.9
2017-05-16T06:21:35.359Z,27.9
2017-05-16T06:22:35.017Z,27.9
2017-05-16T06:23:37.656Z,27.8
2017-05-16T06:24:35.463Z,27.8
2017-05-16T06:25:35.461Z,27.8
2017-05-16T06:26:35.949Z,27.8
2017-05-16T06:27:36.222Z,27.8
2017-05-16T06:28:36.467Z,27.8
2017-05-16T06:29:36.129Z,27.8
2017-05-16T06:30:37.434Z,27.7
2017-05-16T06:31:36.814Z,27.7
2017-05-16T06:32:36.042Z,27.7
2017-05-16T06:33:36.331Z,27.7
2017-05-16T06:34:38.133Z,27.8
2017-05-16T06:35:36.490Z,27.8
2017-05-16T06:36:37.516Z,27.8
2017-05-16T06:37:36.492Z,27.8
2017-05-16T06:38:38.256Z,27.8
2017-05-16T06:39:37.417Z,27.8
2017-05-16T06:40:37.140Z,27.7
2017-05-16T06:41:36.472Z,27.7
2017-05-16T06:42:35.847Z,27.7
2017-05-16T06:43:35.852Z,27.6
2017-05-16T06:44:37.021Z,27.5
2017-05-16T06:45:36.978Z,27.5
2017-05-16T06:46:37.470Z,27.5
2017-05-16T06:47:36.307Z,27.4
2017-05-16T06:48:36.352Z,27.5
2017-05-16T06:49:36.324Z,27.4
2017-05-16T06:50:37.071Z,27.4
2017-05-16T06:51:37.350Z,27.4
2017-05-16T06:52:37.884Z,27.4
2017-05-16T06:53:36.796Z,27.4
2017-05-16T06:54:36.531Z,27.4
2017-05-16T06:55:37.731Z,27.4
2017-05-16T06:56:37.844Z,27.4
2017-05-16T06:57:40.513Z,27.5
2017-05-16T06:58:38.428Z,27.5
2017-05-16T06:59:38.662Z,27.5
2017-05-16T07:00:37.621Z,27.5
2017-05-16T07:01:38.014Z,27.5
2017-05-16T07:02:36.890Z,27.5
2017-05-16T07:03:39.648Z,27.5
2017-05-16T07:04:39.695Z,27.6
2017-05-16T07:05:38.152Z,27.6
2017-05-16T07:06:47.872Z,27.6
2017-05-16T07:07:41.619Z,27.6
2017-05-16T07:08:39.965Z,27.6
2017-05-16T07:09:41.635Z,27.6
2017-05-16T07:10:42.072Z,27.6
2017-05-16T07:11:41.477Z,27.7
2017-05-16T07:12:40.928Z,27.8
2017-05-16T07:13:40.250Z,27.7
2017-05-16T07:14:40.437Z,27.7
2017-05-16T07:15:41.742Z,27.7
2017-05-16T07:16:38.887Z,27.7
2017-05-16T07:17:40.353Z,27.6
2017-05-16T07:18:40.096Z,27.6
2017-05-16T07:19:40.566Z,27.7
2017-05-16T07:20:41.935Z,27.6
2017-05-16T07:21:42.764Z,27.7
2017-05-16T07:22:38.287Z,27.7
2017-05-16T07:23:40.123Z,27.7
2017-05-16T07:24:42.828Z,27.7
2017-05-16T07:25:42.167Z,27.7
2017-05-16T07:26:41.858Z,27.8
2017-05-16T07:27:39.708Z,27.8
2017-05-16T07:28:41.409Z,27.8
2017-05-16T07:29:40.022Z,27.8
2017-05-16T07:30:40.514Z,27.8
2017-05-16T07:31:40.465Z,27.8
2017-05-16T07:32:41.294Z,27.9
2017-05-16T07:33:38.860Z,27.9
2017-05-16T07:34:42.064Z,27.8
2017-05-16T07:35:43.234Z,27.7
2017-05-16T07:36:39.380Z,27.7
2017-05-16T07:37:42.216Z,27.6
2017-05-16T07:38:40.857Z,27.7
2017-05-16T07:39:42.654Z,27.7
2017-05-16T07:40:41.137Z,27.8
2017-05-16T07:41:41.023Z,27.8
2017-05-16T07:42:40.932Z,27.8
2017-05-16T07:43:42.439Z,27.8
2017-05-16T07:44:39.971Z,27.8
2017-05-16T07:45:41.445Z,27.8
2017-05-16T07:46:42.525Z,27.8
2017-05-16T07:47:40.990Z,27.9
2017-05-16T07:48:40.686Z,27.9
2017-05-16T07:49:44.295Z,27.9
2017-05-16T07:50:40.065Z,27.8
2017-05-16T07:51:41.779Z,27.8
2017-05-16T07:52:40.958Z,27.8
2017-05-16T07:53:40.395Z,27.7
2017-05-16T07:54:40.409Z,27.6
2017-05-16T07:55:40.545Z,27.5
2017-05-16T07:56:40.472Z,27.5
2017-05-16T07:57:42.215Z,27.4
2017-05-16T07:58:42.260Z,27.3
2017-05-16T07:59:41.524Z,27.3
2017-05-16T08:00:42.188Z,27.2
2017-05-16T08:01:39.950Z,27.2
2017-05-16T08:02:41.608Z,27.2
2017-05-16T08:03:42.754Z,27.2
2017-05-16T08:04:43.754Z,27.2
2017-05-16T08:05:43.388Z,27.2
2017-05-16T08:06:41.855Z,27.2
2017-05-16T08:07:41.887Z,27.2
2017-05-16T08:08:42.906Z,27.2
2017-05-16T08:09:41.980Z,27.3
2017-05-16T08:10:43.765Z,27.3
2017-05-16T08:11:47.690Z,27.3
2017-05-16T08:12:42.081Z,27.3
2017-05-16T08:13:42.149Z,27.3
2017-05-16T08:14:42.551Z,27.3
2017-05-16T08:15:42.487Z,27.3
2017-05-16T08:16:47.231Z,27.2
2017-05-16T08:17:41.383Z,27.2
2017-05-16T08:18:43.843Z,27.2
2017-05-16T08:19:41.496Z,27.2
2017-05-16T08:20:44.500Z,27.2
2017-05-16T08:21:43.285Z,27.1
2017-05-16T08:22:41.116Z,27
2017-05-16T08:23:41.452Z,27
2017-05-16T08:24:42.673Z,27
2017-05-16T08:25:42.022Z,27
2017-05-16T08:26:42.234Z,27.1
2017-05-16T08:27:42.106Z,27
2017-05-16T08:28:42.228Z,27
2017-05-16T08:29:43.503Z,27
2017-05-16T08:30:41.976Z,26.9
2017-05-16T08:31:42.269Z,26.9
2017-05-16T08:32:41.672Z,26.8
2017-05-16T08:33:42.959Z,26.8
2017-05-16T08:34:43.481Z,26.8
2017-05-16T08:35:42.256Z,26.8
2017-05-16T08:36:42.765Z,26.8
2017-05-16T08:37:41.261Z,26.7
2017-05-16T08:38:44.044Z,26.7
2017-05-16T08:39:41.983Z,26.7
2017-05-16T08:40:42.850Z,26.7
2017-05-16T08:41:42.196Z,26.6
2017-05-16T08:42:41.473Z,26.6
2017-05-16T08:43:42.705Z,26.5
2017-05-16T08:44:44.549Z,26.5
2017-05-16T08:45:44.223Z,26.5
2017-05-16T08:46:43.428Z,26.5
2017-05-16T08:47:42.958Z,26.5
2017-05-16T08:48:44.025Z,26.5
2017-05-16T08:49:42.409Z,26.6
2017-05-16T08:50:43.023Z,26.6
2017-05-16T08:51:42.669Z,26.6
2017-05-16T08:52:43.036Z,26.7
2017-05-16T08:53:42.792Z,26.7
2017-05-16T08:54:43.346Z,26.7
2017-05-16T08:55:43.256Z,26.7
2017-05-16T08:56:42.809Z,26.7
2017-05-16T08:57:44.030Z,26.6
2017-05-16T08:58:45.162Z,26.6
2017-05-16T08:59:45.722Z,26.6
2017-05-16T09:00:43.826Z,26.6
2017-05-16T09:01:44.121Z,26.5
2017-05-16T09:02:43.375Z,26.5
2017-05-16T09:03:43.436Z,26.5
2017-05-16T09:04:44.666Z,26.4
2017-05-16T09:05:45.179Z,26.3
2017-05-16T09:06:43.847Z,26.2
2017-05-16T09:07:44.083Z,26.2
2017-05-16T09:08:43.748Z,26.3
2017-05-16T09:09:43.605Z,26.4
2017-05-16T09:10:47.505Z,26.5
2017-05-16T09:11:45.871Z,26.6
2017-05-16T09:12:44.166Z,26.7
2017-05-16T09:13:46.049Z,26.8
2017-05-16T09:14:47.203Z,26.9
2017-05-16T09:15:44.471Z,27
2017-05-16T09:16:47.420Z,27
2017-05-16T09:17:49.621Z,27.1
2017-05-16T09:18:44.522Z,27.2
2017-05-16T09:19:43.519Z,27.3
2017-05-16T09:20:45.343Z,27.4
2017-05-16T09:21:45.514Z,27.4
2017-05-16T09:22:43.706Z,27.5
2017-05-16T09:23:45.965Z,27.5
2017-05-16T09:24:48.092Z,27.5
2017-05-16T09:25:45.273Z,27.5
2017-05-16T09:26:47.513Z,27.5
2017-05-16T09:27:46.327Z,27.5
2017-05-16T09:28:45.228Z,27.6
2017-05-16T09:29:47.703Z,27.5
2017-05-16T09:30:46.250Z,27.5
2017-05-16T09:31:48.013Z,27.5
2017-05-16T09:32:51.578Z,27.6
2017-05-16T09:33:47.562Z,27.6
2017-05-16T09:34:45.724Z,27.6
2017-05-16T09:35:47.180Z,27.6
2017-05-16T09:36:47.352Z,27.6
2017-05-16T09:37:47.184Z,27.7
2017-05-16T09:38:47.081Z,27.7
2017-05-16T09:39:46.286Z,27.7
2017-05-16T09:40:45.860Z,27.8
2017-05-16T09:41:49.603Z,27.8
2017-05-16T09:42:46.751Z,27.8
2017-05-16T09:43:47.045Z,27.8
2017-05-16T09:44:50.816Z,27.9
2017-05-16T09:45:47.140Z,27.9
2017-05-16T09:46:46.349Z,27.9
2017-05-16T09:47:49.942Z,28
2017-05-16T09:48:48.917Z,28
2017-05-16T09:49:50.093Z,28
2017-05-16T09:50:48.059Z,28
2017-05-16T09:51:50.060Z,28
2017-05-16T09:52:47.198Z,28.1
2017-05-16T09:53:48.282Z,28.1
2017-05-16T09:54:48.063Z,28.2
2017-05-16T09:55:48.002Z,28.2
2017-05-16T09:56:50.972Z,28.3
2017-05-16T09:57:48.491Z,28.3
2017-05-16T09:58:50.327Z,28.3
2017-05-16T09:59:48.104Z,28.3
2017-05-16T10:00:48.556Z,28.4
2017-05-16T10:01:48.005Z,28.4
2017-05-16T10:02:49.549Z,28.4
2017-05-16T10:03:48.733Z,28.4
2017-05-16T10:04:50.980Z,28.4
2017-05-16T10:05:48.325Z,28.5
2017-05-16T10:06:49.130Z,28.5
2017-05-16T10:07:50.294Z,28.6
2017-05-16T10:08:49.268Z,28.7
2017-05-16T10:09:48.334Z,28.7
2017-05-16T10:10:49.904Z,28.7
2017-05-16T10:11:49.988Z,28.8
2017-05-16T10:12:53.910Z,28.7
2017-05-16T10:13:48.572Z,28.8
2017-05-16T10:14:50.851Z,28.8
2017-05-16T10:15:49.856Z,28.8
2017-05-16T10:16:46.606Z,28.7
2017-05-16T10:17:48.171Z,28.8
2017-05-16T10:18:48.191Z,28.8
2017-05-16T10:19:48.412Z,28.8
2017-05-16T10:20:46.411Z,28.7
2017-05-16T10:21:48.310Z,28.7
2017-05-16T10:22:47.331Z,28.7
2017-05-16T10:23:49.706Z,28.7
2017-05-16T10:24:51.289Z,28.6
2017-05-16T10:25:49.857Z,28.6
2017-05-16T10:26:50.450Z,28.6
2017-05-16T10:27:46.787Z,28.6
2017-05-16T10:28:51.244Z,28.6
2017-05-16T10:29:47.347Z,28.6
2017-05-16T10:30:48.529Z,28.5
2017-05-16T10:31:49.593Z,28.5
2017-05-16T10:32:50.333Z,28.5
2017-05-16T10:33:48.967Z,28.4
2017-05-16T10:34:53.588Z,28.4
2017-05-16T10:36:49.045Z,28.3
2017-05-16T10:37:48.919Z,28.3
2017-05-16T10:38:48.320Z,28.3
2017-05-16T10:39:47.306Z,28.3
2017-05-16T10:40:48.707Z,28.3
2017-05-16T10:41:49.577Z,28.4
2017-05-16T10:42:50.554Z,28.4
2017-05-16T10:43:51.355Z,28.4
2017-05-16T10:44:51.294Z,28.4
2017-05-16T10:45:52.110Z,28.3
2017-05-16T10:46:50.588Z,28.3
2017-05-16T10:47:50.658Z,28.2
2017-05-16T10:48:51.023Z,28.2
2017-05-16T10:49:48.325Z,28.1
2017-05-16T10:50:48.529Z,28.1
2017-05-16T10:51:47.733Z,28.1
2017-05-16T10:52:48.158Z,28.1
2017-05-16T10:53:49.252Z,28.1
2017-05-16T10:54:51.197Z,28.1
2017-05-16T10:55:52.873Z,28.1
2017-05-16T10:56:49.617Z,28.1
2017-05-16T10:57:47.961Z,28.1
2017-05-16T10:58:50.130Z,28.1
2017-05-16T10:59:50.553Z,28.1
2017-05-16T11:00:48.174Z,28.1
2017-05-16T11:01:48.157Z,28.1
2017-05-16T11:02:49.311Z,28.1
2017-05-16T11:03:49.439Z,28
2017-05-16T11:04:49.945Z,28
2017-05-16T11:05:52.895Z,28
2017-05-16T11:06:49.159Z,28
2017-05-16T11:07:50.083Z,28
2017-05-16T11:08:49.542Z,28
2017-05-16T11:09:49.577Z,28
2017-05-16T11:10:52.037Z,28
2017-05-16T11:11:51.011Z,28
2017-05-16T11:12:51.354Z,28
2017-05-16T11:13:53.979Z,28
2017-05-16T11:14:51.472Z,27.9
2017-05-16T11:15:51.209Z,27.9
2017-05-16T11:16:49.285Z,27.9
2017-05-16T11:17:52.116Z,27.9
2017-05-16T11:18:50.752Z,27.9
2017-05-16T11:19:50.350Z,27.8
2017-05-16T11:20:50.894Z,27.8
2017-05-16T11:21:50.514Z,27.8
2017-05-16T11:22:50.257Z,27.8
2017-05-16T11:23:51.028Z,27.8
2017-05-16T11:24:51.346Z,27.8
2017-05-16T11:25:51.850Z,27.8
2017-05-16T11:26:50.392Z,27.8
2017-05-16T11:27:50.513Z,27.8
2017-05-16T11:28:51.777Z,28
2017-05-16T11:29:50.058Z,28.2
2017-05-16T11:30:50.593Z,28.3
2017-05-16T11:31:50.665Z,28.3
2017-05-16T11:32:49.621Z,28.3
2017-05-16T11:33:52.197Z,28.3
2017-05-16T11:34:51.530Z,28.2
2017-05-16T11:35:50.865Z,28.2
2017-05-16T11:36:50.853Z,28.2
2017-05-16T11:37:51.410Z,28.2
2017-05-16T11:38:49.941Z,28.3
2017-05-16T11:39:50.068Z,28.3
2017-05-16T11:40:54.156Z,28.3
2017-05-16T11:41:51.138Z,28.2
2017-05-16T11:42:51.274Z,28.1
2017-05-16T11:43:51.358Z,28.1
2017-05-16T11:44:52.051Z,28.1
2017-05-16T11:45:51.928Z,28.2
2017-05-16T11:46:50.617Z,28.2
2017-05-16T11:47:51.108Z,28.2
2017-05-16T11:48:52.225Z,28.2
2017-05-16T11:49:50.462Z,28.2
2017-05-16T11:50:51.568Z,28.3
2017-05-16T11:51:51.686Z,28.3
2017-05-16T11:52:51.919Z,28.3
2017-05-16T11:53:50.761Z,28.3
2017-05-16T11:54:50.725Z,28.3
2017-05-16T11:55:51.519Z,28.3
2017-05-16T11:56:51.884Z,28.3
2017-05-16T11:57:51.967Z,28.3
2017-05-16T11:58:51.178Z,28.3
2017-05-16T11:59:51.563Z,28.3
2017-05-16T12:00:52.120Z,28.3
2017-05-16T12:01:53.470Z,28.3
2017-05-16T12:02:52.341Z,28.3
2017-05-16T12:03:51.820Z,28.3
2017-05-16T12:04:52.347Z,28.3
2017-05-16T12:05:51.445Z,28.3
2017-05-16T12:06:53.502Z,28.3
2017-05-16T12:07:52.055Z,28.3
2017-05-16T12:08:53.084Z,28.3
2017-05-16T12:09:51.527Z,28.4
2017-05-16T12:10:51.948Z,28.4
2017-05-16T12:11:51.558Z,28.4
2017-05-16T12:12:53.926Z,28.4
2017-05-16T12:13:55.600Z,28.3
2017-05-16T12:14:53.487Z,28.3
2017-05-16T12:15:54.346Z,28.3
2017-05-16T12:16:53.682Z,28.3
2017-05-16T12:17:53.388Z,28.3
2017-05-16T12:18:53.175Z,28.3
2017-05-16T12:19:53.117Z,28.3
2017-05-16T12:20:52.704Z,28.3
2017-05-16T12:21:55.735Z,28.3
2017-05-16T12:22:53.358Z,28.2
2017-05-16T12:23:53.559Z,28.3
2017-05-16T12:25:00.330Z,28.2
2017-05-16T12:25:56.806Z,28.3
2017-05-16T12:26:54.633Z,28.3
2017-05-16T12:27:52.333Z,28.2
2017-05-16T12:28:52.604Z,28.2
2017-05-16T12:29:53.394Z,28.2
2017-05-16T12:30:55.078Z,28.2
2017-05-16T12:31:53.435Z,28.3
2017-05-16T12:32:57.204Z,28.3
2017-05-16T12:33:53.556Z,28.3
2017-05-16T12:34:55.039Z,28.3
2017-05-16T12:35:54.669Z,28.3
2017-05-16T12:36:53.262Z,28.4
2017-05-16T12:37:52.659Z,28.5
2017-05-16T12:38:53.552Z,28.5
2017-05-16T12:39:53.903Z,28.4
2017-05-16T12:40:55.717Z,28.4
2017-05-16T12:41:54.990Z,28.4
2017-05-16T12:42:55.608Z,28.4
2017-05-16T12:43:56.680Z,28.4
2017-05-16T12:44:53.621Z,28.3
2017-05-16T12:45:53.040Z,28.2
2017-05-16T12:46:55.717Z,28.1
2017-05-16T12:47:55.413Z,28.1
2017-05-16T12:48:55.304Z,28.2
2017-05-16T12:49:53.186Z,28.2
2017-05-16T12:50:54.818Z,28.2
2017-05-16T12:51:53.336Z,28.3
2017-05-16T12:52:56.510Z,28.3
2017-05-16T12:53:54.457Z,28.2
2017-05-16T12:54:55.090Z,28.1
2017-05-16T12:55:54.259Z,28
2017-05-16T12:56:54.506Z,28
2017-05-16T12:57:55.924Z,28
2017-05-16T12:58:55.040Z,28
2017-05-16T12:59:56.899Z,28
2017-05-16T13:00:55.962Z,27.9
2017-05-16T13:01:55.955Z,27.9
2017-05-16T13:02:56.302Z,27.8
2017-05-16T13:03:56.929Z,27.7
2017-05-16T13:04:55.994Z,27.6
2017-05-16T13:05:54.548Z,27.5
2017-05-16T13:06:55.268Z,27.4
2017-05-16T13:07:55.287Z,27.4
2017-05-16T13:08:57.058Z,27.4
2017-05-16T13:09:56.033Z,27.4
2017-05-16T13:10:55.196Z,27.4
2017-05-16T13:11:55.111Z,27.4
2017-05-16T13:12:55.938Z,27.4
2017-05-16T13:13:54.495Z,27.4
2017-05-16T13:14:56.252Z,27.4
2017-05-16T13:15:55.636Z,27.4
2017-05-16T13:16:54.702Z,27.4
2017-05-16T13:17:56.448Z,27.4
2017-05-16T13:18:55.878Z,27.4
2017-05-16T13:19:57.406Z,27.4
2017-05-16T13:20:58.452Z,27.4
2017-05-16T13:21:54.919Z,27.4
2017-05-16T13:22:59.545Z,27.4